AMX80 VNKT-VQPR
Flight info
| Callsign | AMX80 |
|---|---|
| Flight time | 0h 40m |
| Altitude | 33000 |
| Route | IGRIS1B IGRIS DCT KIMTI G348 SUBSU SUBSU1 |
| Aircraft | B38M/M-SDE1FGHILORVWXY/HB1 |
Departure
| Time | 2025-12-29 13:58 |
|---|---|
| Airport | Tribhuvan International Airport (VNKT) |
Arrival
| Time | 2025-12-29 14:39 |
|---|---|
| Airport | Paro International Airport (VQPR) |
| Time | Latitude | Longitude | Altitude | Speed | Heading |
|---|---|---|---|---|---|
| 2025-12-29 13:24 | 27.69755 | 85.35734 | 4400 ft | 0 kts | 292° |
| 2025-12-29 13:43 | 27.69744 | 85.35763 | 4400 ft | 3 kts | 292° |
| 2025-12-29 13:43 | 27.69732 | 85.35802 | 4400 ft | 3 kts | 275° |
| 2025-12-29 13:44 | 27.69748 | 85.35835 | 4400 ft | 3 kts | 205° |
| 2025-12-29 13:44 | 27.69768 | 85.35844 | 4400 ft | 0 kts | 201° |
| 2025-12-29 13:54 | 27.69764 | 85.35843 | 4400 ft | 2 kts | 201° |
| 2025-12-29 13:54 | 27.69627 | 85.35780 | 4400 ft | 21 kts | 202° |
| 2025-12-29 13:55 | 27.69231 | 85.35600 | 4394 ft | 26 kts | 201° |
| 2025-12-29 13:55 | 27.69083 | 85.35569 | 4392 ft | 6 kts | 130° |
| 2025-12-29 13:56 | 27.69064 | 85.35645 | 4394 ft | 4 kts | 15° |
| 2025-12-29 13:56 | 27.69074 | 85.35649 | 4394 ft | 0 kts | 20° |
| 2025-12-29 13:57 | 27.70956 | 85.36507 | 4657 ft | 209 kts | 21° |
| 2025-12-29 13:57 | 27.72464 | 85.36794 | 5709 ft | 232 kts | 353° |
| 2025-12-29 13:58 | 27.74237 | 85.32479 | 7862 ft | 262 kts | 239° |
| 2025-12-29 13:59 | 27.69566 | 85.29045 | 11128 ft | 299 kts | 190° |
| 2025-12-29 13:59 | 27.67399 | 85.29211 | 11933 ft | 328 kts | 169° |
| 2025-12-29 14:00 | 27.63974 | 85.32615 | 14431 ft | 343 kts | 111° |
| 2025-12-29 14:00 | 27.64124 | 85.37733 | 16970 ft | 331 kts | 71° |
| 2025-12-29 14:01 | 27.64617 | 85.43132 | 18429 ft | 370 kts | 93° |
| 2025-12-29 14:01 | 27.63778 | 85.49081 | 19833 ft | 393 kts | 101° |
| 2025-12-29 14:01 | 27.63178 | 85.52106 | 20690 ft | 399 kts | 102° |
| 2025-12-29 14:02 | 27.61075 | 85.61395 | 23098 ft | 417 kts | 103° |
| 2025-12-29 14:03 | 27.59979 | 85.67905 | 24487 ft | 427 kts | 99° |
| 2025-12-29 14:05 | 27.55255 | 85.95110 | 29529 ft | 459 kts | 100° |
| 2025-12-29 14:07 | 27.50109 | 86.24275 | 33119 ft | 485 kts | 101° |
| 2025-12-29 14:09 | 27.44450 | 86.53874 | 33095 ft | 483 kts | 102° |
| 2025-12-29 14:11 | 27.38737 | 86.83374 | 33108 ft | 480 kts | 102° |
| 2025-12-29 14:13 | 27.32973 | 87.12777 | 33078 ft | 496 kts | 103° |
| 2025-12-29 14:15 | 27.19571 | 87.41434 | 33092 ft | 531 kts | 125° |
| 2025-12-29 14:17 | 27.03997 | 87.69541 | 33086 ft | 530 kts | 125° |
| 2025-12-29 14:19 | 26.88366 | 87.97575 | 33098 ft | 530 kts | 125° |
| 2025-12-29 14:21 | 26.73042 | 88.25038 | 33086 ft | 529 kts | 123° |
| 2025-12-29 14:23 | 26.79459 | 88.51998 | 29626 ft | 450 kts | 54° |
| 2025-12-29 14:24 | 26.90248 | 88.71770 | 26349 ft | 409 kts | 53° |
| 2025-12-29 14:25 | 26.96051 | 88.82441 | 24612 ft | 396 kts | 54° |
| 2025-12-29 14:26 | 27.00152 | 88.90368 | 23205 ft | 390 kts | 56° |
| 2025-12-29 14:27 | 27.02777 | 88.95616 | 22368 ft | 379 kts | 57° |
| 2025-12-29 14:27 | 27.06544 | 89.03139 | 21423 ft | 354 kts | 57° |
| 2025-12-29 14:28 | 27.10058 | 89.10168 | 20551 ft | 343 kts | 57° |
| 2025-12-29 14:29 | 27.12394 | 89.14848 | 19637 ft | 343 kts | 57° |
| 2025-12-29 14:29 | 27.13623 | 89.17093 | 19149 ft | 341 kts | 46° |
| 2025-12-29 14:30 | 27.19635 | 89.20003 | 17830 ft | 305 kts | 11° |
| 2025-12-29 14:30 | 27.23692 | 89.21297 | 17074 ft | 301 kts | 12° |
| 2025-12-29 14:31 | 27.27624 | 89.22551 | 16320 ft | 290 kts | 12° |
| 2025-12-29 14:31 | 27.31331 | 89.23739 | 15698 ft | 267 kts | 13° |
| 2025-12-29 14:32 | 27.34920 | 89.24135 | 14926 ft | 258 kts | 346° |
| 2025-12-29 14:32 | 27.38505 | 89.23804 | 14218 ft | 260 kts | 2° |
| 2025-12-29 14:33 | 27.41847 | 89.25083 | 13591 ft | 255 kts | 29° |
| 2025-12-29 14:33 | 27.43462 | 89.25853 | 13272 ft | 250 kts | 13° |
| 2025-12-29 14:33 | 27.46668 | 89.26952 | 13451 ft | 240 kts | 25° |
| 2025-12-29 14:34 | 27.49380 | 89.31209 | 11521 ft | 221 kts | 86° |
| 2025-12-29 14:35 | 27.48543 | 89.34085 | 10559 ft | 186 kts | 137° |
| 2025-12-29 14:35 | 27.46355 | 89.35454 | 9451 ft | 173 kts | 147° |
| 2025-12-29 14:36 | 27.44825 | 89.37322 | 8909 ft | 154 kts | 122° |
| 2025-12-29 14:36 | 27.43800 | 89.39382 | 8513 ft | 150 kts | 119° |
| 2025-12-29 14:37 | 27.42543 | 89.41202 | 8046 ft | 153 kts | 147° |
| 2025-12-29 14:37 | 27.41557 | 89.41710 | 7545 ft | 158 kts | 158° |
| 2025-12-29 14:37 | 27.40003 | 89.42669 | 7371 ft | 70 kts | 150° |
| 2025-12-29 14:38 | 27.39436 | 89.42996 | 7370 ft | 7 kts | 216° |
| 2025-12-29 14:39 | 27.39450 | 89.42917 | 7369 ft | 4 kts | 332° |
| 2025-12-29 14:39 | 27.39625 | 89.42807 | 7370 ft | 26 kts | 330° |
| 2025-12-29 14:40 | 27.39911 | 89.42626 | 7370 ft | 30 kts | 331° |
| 2025-12-29 14:40 | 27.40254 | 89.42409 | 7368 ft | 21 kts | 331° |
| 2025-12-29 14:41 | 27.40406 | 89.42327 | 7370 ft | 2 kts | 318° |
| 2025-12-29 14:41 | 27.40421 | 89.42308 | 7370 ft | 5 kts | 313° |
| 2025-12-29 14:41 | 27.40505 | 89.42249 | 7371 ft | 10 kts | 330° |
| 2025-12-29 14:42 | 27.40595 | 89.42124 | 7371 ft | 5 kts | 238° |
| 2025-12-29 14:43 | 27.40593 | 89.42120 | 7371 ft | 0 kts | 239° |